Time;durP1;ratioP1;P1;durP2;ratioP2;P2;SDS_P1;SDS_P2;PMS_P1;PMS_P2;Temp;Humidity;BMP_temperature;BMP_pressure;BME280_temperature;BME280_humidity;BME280_pressure;Samples;Min_cycle;Max_cycle;Signal;HPM_P1;HPM_P2
2022/06/27 00:01:37;;;;;;;;;;;;;;;;;;5132219;27;919;-65
2022/06/27 00:04:03;;;;;;;;;;;;;;;;;;5133063;27;903;-66
2022/06/27 00:06:28;;;;;;;;;;;;;;;;;;5132195;27;1073;-66
2022/06/27 00:08:54;;;;;;;;;;;;;;;;;;5131411;27;801;-66
2022/06/27 00:11:20;;;;;;;;;;;;;;;;;;5132729;27;843;-66
2022/06/27 00:13:46;;;;;;;;;;;;;;;;;;5132269;27;887;-66
2022/06/27 00:16:11;;;;;;;;;;;;;;;;;;5132728;27;888;-66
2022/06/27 00:18:37;;;;;;;;;;;;;;;;;;5130792;27;1901;-66
2022/06/27 00:21:02;;;;;;;;;;;;;;;;;;5132664;27;1038;-66
2022/06/27 00:23:28;;;;;;;;;;;;;;;;;;5132504;27;839;-65
2022/06/27 00:25:53;;;;;;;;;;;;;;;;;;5132422;27;982;-65
2022/06/27 00:28:18;;;;;;;;;;;;;;;;;;5132285;27;1013;-65
2022/06/27 00:30:44;;;;;;;;;;;;;;;;;;5129764;27;1344;-66
2022/06/27 00:33:09;;;;;;;;;;;;;;;;;;5131761;27;1204;-65
2022/06/27 00:35:34;;;;;;;;;;;;;;;;;;5131940;27;754;-65
2022/06/27 00:37:59;;;;;;;;;;;;;;;;;;5133057;27;915;-65
2022/06/27 00:40:25;;;;;;;;;;;;;;;;;;5131580;27;1914;-65
2022/06/27 00:42:50;;;;;;;;;;;;;;;;;;5132373;27;896;-66
2022/06/27 00:45:15;;;;;;;;;;;;;;;;;;5130953;27;1377;-66
2022/06/27 00:47:41;;;;;;;;;;;;;;;;;;5130824;27;1054;-66
2022/06/27 00:50:07;;;;;;;;;;;;;;;;;;5131139;27;1121;-66
2022/06/27 00:52:33;;;;;;;;;;;;;;;;;;5130858;28;1404;-66
2022/06/27 00:54:58;;;;;;;;;;;;;;;;;;5130199;28;1244;-67
2022/06/27 00:57:24;;;;;;;;;;;;;;;;;;5113541;28;1552;-67
2022/06/27 00:59:49;;;;;;;;;;;;;;;;;;5131590;27;1905;-66
2022/06/27 01:02:15;;;;;;;;;;;;;;;;;;5132251;28;809;-66
2022/06/27 01:04:40;;;;;;;;;;;;;;;;;;5132734;27;828;-66
2022/06/27 01:07:07;;;;;;;;;;;;;;;;;;5132549;27;875;-66
2022/06/27 01:09:32;;;;;;;;;;;;;;;;;;5132368;27;1216;-66
2022/06/27 01:11:57;;;;;;;;;;;;;;;;;;5134429;27;959;-66
2022/06/27 01:14:23;;;;;;;;;;;;;;;;;;5135674;27;897;-66
2022/06/27 01:16:48;;;;;;;;;;;;;;;;;;5133503;27;904;-66
2022/06/27 01:19:15;;;;;;;;;;;;;;;;;;5133641;27;1956;-66
2022/06/27 01:21:46;;;;;;;;;;;;;;;;;;5134787;27;828;-66
2022/06/27 01:24:11;;;;;;;;;;;;;;;;;;5135536;27;902;-66
2022/06/27 01:26:37;;;;;;;;;;;;;;;;;;5133995;27;1238;-66
2022/06/27 01:29:03;;;;;;;;;;;;;;;;;;5133984;27;1312;-66
2022/06/27 01:31:29;;;;;;;;;;;;;;;;;;5135000;27;879;-65
2022/06/27 01:33:54;;;;;;;;;;;;;;;;;;5135015;27;1210;-66
2022/06/27 01:39:04;;;;;;;;;;;;;;;;;;5136095;27;1905;-66
2022/06/27 01:41:29;;;;;;;;;;;;;;;;;;5133993;27;1134;-66
2022/06/27 01:43:55;;;;;;;;;;;;;;;;;;5134340;27;1115;-66
2022/06/27 01:46:20;;;;;;;;;;;;;;;;;;5133960;27;1430;-66
2022/06/27 01:48:45;;;;;;;;;;;;;;;;;;5134879;27;1014;-66
2022/06/27 01:51:11;;;;;;;;;;;;;;;;;;5133857;27;1181;-66
2022/06/27 01:53:36;;;;;;;;;;;;;;;;;;5133682;27;733;-65
2022/06/27 01:56:02;;;;;;;;;;;;;;;;;;5133225;27;1416;-67
2022/06/27 01:58:27;;;;;;;;;;;;;;;;;;5133436;27;970;-66
2022/06/27 02:00:52;;;;;;;;;;;;;;;;;;5133119;27;1893;-66
2022/06/27 02:03:18;;;;;;;;;;;;;;;;;;5134202;27;828;-66
2022/06/27 02:05:45;;;;;;;;;;;;;;;;;;5133878;27;876;-65
2022/06/27 02:08:10;;;;;;;;;;;;;;;;;;5135070;27;905;-66
2022/06/27 02:10:36;;;;;;;;;;;;;;;;;;5132726;27;1334;-66
2022/06/27 02:13:02;;;;;;;;;;;;;;;;;;5132594;27;919;-66
2022/06/27 02:15:27;;;;;;;;;;;;;;;;;;5133328;27;840;-66
2022/06/27 02:17:52;;;;;;;;;;;;;;;;;;5133691;27;864;-67
2022/06/27 02:20:18;;;;;;;;;;;;;;;;;;5132140;27;1976;-67
2022/06/27 02:22:43;;;;;;;;;;;;;;;;;;5132573;27;1419;-66
2022/06/27 02:25:10;;;;;;;;;;;;;;;;;;5134013;27;844;-66
2022/06/27 02:27:35;;;;;;;;;;;;;;;;;;5132554;27;1405;-66
2022/06/27 02:30:00;;;;;;;;;;;;;;;;;;5132643;27;1326;-66
2022/06/27 02:32:27;;;;;;;;;;;;;;;;;;5132386;27;1319;-66
2022/06/27 02:34:54;;;;;;;;;;;;;;;;;;5134207;27;911;-66
2022/06/27 02:37:19;;;;;;;;;;;;;;;;;;5134353;27;931;-66
2022/06/27 02:39:46;;;;;;;;;;;;;;;;;;5134075;27;1961;-66
2022/06/27 02:42:13;;;;;;;;;;;;;;;;;;5132656;27;1843;-66
2022/06/27 02:44:39;;;;;;;;;;;;;;;;;;5132689;27;825;-66
2022/06/27 02:47:04;;;;;;;;;;;;;;;;;;5132259;27;1308;-65
2022/06/27 02:49:30;;;;;;;;;;;;;;;;;;5133669;27;840;-66
2022/06/27 02:51:58;;;;;;;;;;;;;;;;;;5133557;27;754;-66
2022/06/27 02:54:34;;;;;;;;;;;;;;;;;;5133827;27;915;-66
2022/06/27 02:57:04;;;;;;;;;;;;;;;;;;5133663;27;907;-66
2022/06/27 02:59:34;;;;;;;;;;;;;;;;;;5133203;27;1894;-66
2022/06/27 03:01:59;;;;;;;;;;;;;;;;;;5132035;27;1201;-66
2022/06/27 03:04:25;;;;;;;;;;;;;;;;;;5131581;27;1469;-65
2022/06/27 03:06:50;;;;;;;;;;;;;;;;;;5132667;27;769;-65
2022/06/27 03:09:16;;;;;;;;;;;;;;;;;;5131802;27;1307;-65
2022/06/27 03:11:41;;;;;;;;;;;;;;;;;;5132841;27;973;-66
2022/06/27 03:14:07;;;;;;;;;;;;;;;;;;5131820;27;1452;-66
2022/06/27 03:16:32;;;;;;;;;;;;;;;;;;5133382;27;836;-65
2022/06/27 03:18:57;;;;;;;;;;;;;;;;;;5131208;27;1941;-65
2022/06/27 03:21:22;;;;;;;;;;;;;;;;;;5131726;27;749;-66
2022/06/27 03:23:48;;;;;;;;;;;;;;;;;;5130912;27;1255;-66
2022/06/27 03:26:14;;;;;;;;;;;;;;;;;;5132940;27;761;-65
2022/06/27 03:28:39;;;;;;;;;;;;;;;;;;5132625;27;1016;-65
2022/06/27 03:31:05;;;;;;;;;;;;;;;;;;5132788;27;877;-66
2022/06/27 03:33:30;;;;;;;;;;;;;;;;;;5131907;27;1422;-65
2022/06/27 03:35:56;;;;;;;;;;;;;;;;;;5132232;27;946;-65
2022/06/27 03:38:21;;;;;;;;;;;;;;;;;;5132922;27;801;-66
2022/06/27 03:40:46;;;;;;;;;;;;;;;;;;5133173;27;1901;-66
2022/06/27 03:43:12;;;;;;;;;;;;;;;;;;5132851;27;804;-66
2022/06/27 03:45:37;;;;;;;;;;;;;;;;;;5132993;27;919;-66
2022/06/27 03:48:03;;;;;;;;;;;;;;;;;;5133337;27;986;-65
2022/06/27 03:50:28;;;;;;;;;;;;;;;;;;5132846;27;1013;-66
2022/06/27 03:52:54;;;;;;;;;;;;;;;;;;5132790;27;832;-66
2022/06/27 03:55:19;;;;;;;;;;;;;;;;;;5132622;27;847;-66
2022/06/27 03:57:47;;;;;;;;;;;;;;;;;;5132682;27;1133;-65
2022/06/27 04:00:13;;;;;;;;;;;;;;;;;;5132748;27;1874;-66
2022/06/27 04:02:38;;;;;;;;;;;;;;;;;;5132482;27;776;-66
2022/06/27 04:05:04;;;;;;;;;;;;;;;;;;5131723;27;1164;-66
2022/06/27 04:07:30;;;;;;;;;;;;;;;;;;5131125;27;880;-66
2022/06/27 04:09:56;;;;;;;;;;;;;;;;;;5131792;27;1026;-66
2022/06/27 04:12:21;;;;;;;;;;;;;;;;;;5131590;27;990;-66
2022/06/27 04:14:46;;;;;;;;;;;;;;;;;;5131232;27;879;-66
2022/06/27 04:17:11;;;;;;;;;;;;;;;;;;5130462;27;876;-66
2022/06/27 04:19:37;;;;;;;;;;;;;;;;;;5130323;27;1956;-66
2022/06/27 04:22:02;;;;;;;;;;;;;;;;;;5130093;27;1111;-66
2022/06/27 04:24:27;;;;;;;;;;;;;;;;;;5131343;27;984;-67
2022/06/27 04:26:53;;;;;;;;;;;;;;;;;;5130100;27;1289;-66
2022/06/27 04:29:18;;;;;;;;;;;;;;;;;;5130159;27;1225;-66
2022/06/27 04:31:43;;;;;;;;;;;;;;;;;;5130150;27;1392;-66
2022/06/27 04:34:12;;;;;;;;;;;;;;;;;;5122790;27;1418;-66
2022/06/27 04:36:37;;;;;;;;;;;;;;;;;;5123028;27;1162;-65
2022/06/27 04:39:03;;;;;;;;;;;;;;;;;;5129063;27;1914;-65
2022/06/27 04:41:29;;;;;;;;;;;;;;;;;;5112636;28;1106;-66
2022/06/27 04:43:54;;;;;;;;;;;;;;;;;;5111039;28;1132;-66
2022/06/27 04:46:20;;;;;;;;;;;;;;;;;;5115595;27;1217;-66
2022/06/27 04:48:45;;;;;;;;;;;;;;;;;;5117595;27;887;-66
2022/06/27 04:51:12;;;;;;;;;;;;;;;;;;5118596;27;883;-66
2022/06/27 04:53:38;;;;;;;;;;;;;;;;;;5118045;27;824;-66
2022/06/27 04:56:04;;;;;;;;;;;;;;;;;;5117090;28;899;-66
2022/06/27 04:58:29;;;;;;;;;;;;;;;;;;5117903;27;816;-66
2022/06/27 05:00:55;;;;;;;;;;;;;;;;;;5115932;28;1961;-66
2022/06/27 05:03:22;;;;;;;;;;;;;;;;;;5116348;28;864;-66
2022/06/27 05:05:49;;;;;;;;;;;;;;;;;;5117833;27;1011;-66
2022/06/27 05:08:15;;;;;;;;;;;;;;;;;;5117785;27;860;-66
2022/06/27 05:10:40;;;;;;;;;;;;;;;;;;5117564;27;828;-66
2022/06/27 05:13:05;;;;;;;;;;;;;;;;;;5118349;27;832;-66
2022/06/27 05:15:31;;;;;;;;;;;;;;;;;;5118115;27;832;-66
2022/06/27 05:17:56;;;;;;;;;;;;;;;;;;5118656;27;892;-66
2022/06/27 05:20:22;;;;;;;;;;;;;;;;;;5118019;27;1929;-67
2022/06/27 05:22:47;;;;;;;;;;;;;;;;;;5118385;27;887;-67
2022/06/27 05:25:13;;;;;;;;;;;;;;;;;;5117055;28;1011;-67
2022/06/27 05:27:38;;;;;;;;;;;;;;;;;;5118626;27;892;-66
2022/06/27 05:30:04;;;;;;;;;;;;;;;;;;5118368;27;796;-66
2022/06/27 05:32:29;;;;;;;;;;;;;;;;;;5099705;28;1326;-66
2022/06/27 05:34:54;;;;;;;;;;;;;;;;;;5117753;27;797;-66
2022/06/27 05:37:20;;;;;;;;;;;;;;;;;;5116769;28;1128;-65
2022/06/27 05:39:46;;;;;;;;;;;;;;;;;;5116547;28;1971;-67
2022/06/27 05:42:12;;;;;;;;;;;;;;;;;;5116320;28;1213;-66
2022/06/27 05:44:37;;;;;;;;;;;;;;;;;;5115810;28;972;-67
2022/06/27 05:47:03;;;;;;;;;;;;;;;;;;5117693;27;836;-66
2022/06/27 05:49:28;;;;;;;;;;;;;;;;;;5117248;27;1231;-66
2022/06/27 05:51:57;;;;;;;;;;;;;;;;;;5117055;27;935;-66
2022/06/27 05:54:24;;;;;;;;;;;;;;;;;;5116524;28;852;-66
2022/06/27 05:56:49;;;;;;;;;;;;;;;;;;5111000;28;1440;-66
2022/06/27 05:59:14;;;;;;;;;;;;;;;;;;5112286;28;1961;-66
2022/06/27 06:01:40;;;;;;;;;;;;;;;;;;5114007;28;792;-66
2022/06/27 06:04:05;;;;;;;;;;;;;;;;;;5114291;28;824;-66
2022/06/27 06:06:30;;;;;;;;;;;;;;;;;;5114781;28;916;-66
2022/06/27 06:08:57;;;;;;;;;;;;;;;;;;5115333;28;1042;-66
2022/06/27 06:11:23;;;;;;;;;;;;;;;;;;5114954;28;915;-66
2022/06/27 06:13:48;;;;;;;;;;;;;;;;;;5113171;28;1202;-66
2022/06/27 06:16:16;;;;;;;;;;;;;;;;;;5115294;28;762;-66
2022/06/27 06:18:42;;;;;;;;;;;;;;;;;;5113263;28;1328;-66
2022/06/27 06:21:07;;;;;;;;;;;;;;;;;;5112816;28;1906;-66
2022/06/27 06:23:33;;;;;;;;;;;;;;;;;;5114107;28;808;-66
2022/06/27 06:25:58;;;;;;;;;;;;;;;;;;5114534;28;836;-66
2022/06/27 06:28:25;;;;;;;;;;;;;;;;;;5113607;28;997;-65
2022/06/27 06:30:50;;;;;;;;;;;;;;;;;;5115562;28;796;-66
2022/06/27 06:33:16;;;;;;;;;;;;;;;;;;5112902;28;1215;-65
2022/06/27 06:35:42;;;;;;;;;;;;;;;;;;5113260;27;828;-66
2022/06/27 06:38:08;;;;;;;;;;;;;;;;;;5112299;28;875;-66
2022/06/27 06:40:33;;;;;;;;;;;;;;;;;;5122563;28;1886;-66
2022/06/27 06:43:00;;;;;;;;;;;;;;;;;;5116926;28;1013;-66
2022/06/27 06:45:25;;;;;;;;;;;;;;;;;;5113625;28;852;-67
2022/06/27 06:47:52;;;;;;;;;;;;;;;;;;5117290;27;1058;-66
2022/06/27 06:50:21;;;;;;;;;;;;;;;;;;5113348;28;1344;-66
2022/06/27 06:52:49;;;;;;;;;;;;;;;;;;5111866;28;955;-65
2022/06/27 06:55:16;;;;;;;;;;;;;;;;;;5111799;28;1511;-65
2022/06/27 06:57:41;;;;;;;;;;;;;;;;;;5113147;27;855;-66
2022/06/27 07:00:08;;;;;;;;;;;;;;;;;;5111946;28;1976;-66
2022/06/27 07:02:34;;;;;;;;;;;;;;;;;;5111259;28;1297;-65
2022/06/27 07:05:02;;;;;;;;;;;;;;;;;;5113499;28;844;-65
2022/06/27 07:07:27;;;;;;;;;;;;;;;;;;5111517;28;860;-66
2022/06/27 07:09:52;;;;;;;;;;;;;;;;;;5112596;28;1118;-67
2022/06/27 07:12:18;;;;;;;;;;;;;;;;;;5113716;28;765;-66
2022/06/27 07:14:45;;;;;;;;;;;;;;;;;;5112018;28;658;-66
2022/06/27 07:17:10;;;;;;;;;;;;;;;;;;5112894;27;896;-66
2022/06/27 07:19:38;;;;;;;;;;;;;;;;;;5111639;28;1971;-66
2022/06/27 07:22:05;;;;;;;;;;;;;;;;;;5110801;28;1185;-67
2022/06/27 07:24:30;;;;;;;;;;;;;;;;;;5093652;28;1380;-66
2022/06/27 07:26:57;;;;;;;;;;;;;;;;;;5112008;28;875;-67
2022/06/27 07:29:22;;;;;;;;;;;;;;;;;;5112327;28;941;-67
2022/06/27 07:31:48;;;;;;;;;;;;;;;;;;5110587;28;880;-67
2022/06/27 07:34:17;;;;;;;;;;;;;;;;;;5111429;28;1322;-66
2022/06/27 07:36:44;;;;;;;;;;;;;;;;;;5110143;28;1202;-66
2022/06/27 07:39:09;;;;;;;;;;;;;;;;;;5111990;28;1975;-67
2022/06/27 07:41:35;;;;;;;;;;;;;;;;;;5111696;28;849;-66
2022/06/27 07:44:01;;;;;;;;;;;;;;;;;;5110279;28;1198;-66
2022/06/27 07:46:27;;;;;;;;;;;;;;;;;;5111683;28;879;-66
2022/06/27 07:48:53;;;;;;;;;;;;;;;;;;5109983;28;860;-66
2022/06/27 07:51:21;;;;;;;;;;;;;;;;;;5110373;28;1366;-66
2022/06/27 07:53:48;;;;;;;;;;;;;;;;;;5111167;28;911;-66
2022/06/27 07:56:14;;;;;;;;;;;;;;;;;;5094169;28;1337;-66
2022/06/27 07:58:40;;;;;;;;;;;;;;;;;;5111879;28;821;-66
2022/06/27 08:01:07;;;;;;;;;;;;;;;;;;5093215;28;1915;-66
2022/06/27 08:03:47;;;;;;;;;;;;;;;;;;5111995;28;841;-66
2022/06/27 08:06:15;;;;;;;;;;;;;;;;;;5111445;28;964;-66
2022/06/27 08:08:42;;;;;;;;;;;;;;;;;;5111375;28;852;-66
2022/06/27 08:11:13;;;;;;;;;;;;;;;;;;5111952;28;892;-67
2022/06/27 08:13:38;;;;;;;;;;;;;;;;;;5109476;28;1401;-66
2022/06/27 08:16:05;;;;;;;;;;;;;;;;;;5093217;28;1357;-66
2022/06/27 08:18:31;;;;;;;;;;;;;;;;;;5109415;28;1451;-66
2022/06/27 08:20:57;;;;;;;;;;;;;;;;;;5111605;28;1978;-66
2022/06/27 08:23:22;;;;;;;;;;;;;;;;;;5110234;28;859;-66
2022/06/27 08:25:48;;;;;;;;;;;;;;;;;;5109223;28;1079;-67
2022/06/27 08:28:16;;;;;;;;;;;;;;;;;;5111521;28;999;-66
2022/06/27 08:30:42;;;;;;;;;;;;;;;;;;5109262;28;1190;-66
2022/06/27 08:33:08;;;;;;;;;;;;;;;;;;5110852;28;1100;-66
2022/06/27 08:35:35;;;;;;;;;;;;;;;;;;5108996;28;1459;-66
2022/06/27 08:38:01;;;;;;;;;;;;;;;;;;5110858;28;777;-66
2022/06/27 08:40:27;;;;;;;;;;;;;;;;;;5109744;28;1902;-66
2022/06/27 08:42:53;;;;;;;;;;;;;;;;;;5111166;28;935;-66
2022/06/27 08:45:19;;;;;;;;;;;;;;;;;;5111753;28;863;-66
2022/06/27 08:47:46;;;;;;;;;;;;;;;;;;5111040;28;892;-65
2022/06/27 08:50:11;;;;;;;;;;;;;;;;;;5093170;28;1294;-66
2022/06/27 08:52:44;;;;;;;;;;;;;;;;;;5092439;28;1480;-66
2022/06/27 08:55:10;;;;;;;;;;;;;;;;;;5111267;28;929;-66
2022/06/27 08:57:42;;;;;;;;;;;;;;;;;;5110061;28;908;-66
2022/06/27 09:00:09;;;;;;;;;;;;;;;;;;5111052;28;1972;-67
2022/06/27 09:02:42;;;;;;;;;;;;;;;;;;5110891;28;1076;-66
2022/06/27 09:05:28;;;;;;;;;;;;;;;;;;5110485;28;1559;-66
2022/06/27 09:07:55;;;;;;;;;;;;;;;;;;5110638;28;1190;-67
2022/06/27 09:10:29;;;;;;;;;;;;;;;;;;5110473;28;860;-66
2022/06/27 09:13:11;;;;;;;;;;;;;;;;;;5109997;28;825;-67
2022/06/27 09:15:48;;;;;;;;;;;;;;;;;;5109531;28;1126;-67
2022/06/27 09:18:19;;;;;;;;;;;;;;;;;;5109249;28;1229;-66
2022/06/27 09:20:58;;;;;;;;;;;;;;;;;;5109814;28;1901;-67
2022/06/27 09:23:50;;;;;;;;;;;;;;;;;;5109224;28;993;-66
2022/06/27 09:26:25;;;;;;;;;;;;;;;;;;5108791;28;1320;-66
2022/06/27 09:28:53;;;;;;;;;;;;;;;;;;5109549;28;919;-67
2022/06/27 09:31:30;;;;;;;;;;;;;;;;;;5110697;28;1434;-67
2022/06/27 09:33:58;;;;;;;;;;;;;;;;;;5113702;27;1116;-66
2022/06/27 09:36:26;;;;;;;;;;;;;;;;;;5114131;28;816;-66
2022/06/27 09:38:52;;;;;;;;;;;;;;;;;;5112309;28;1914;-66
2022/06/27 09:41:19;;;;;;;;;;;;;;;;;;5113322;28;789;-66
2022/06/27 09:43:46;;;;;;;;;;;;;;;;;;5113507;28;786;-66
2022/06/27 09:46:13;;;;;;;;;;;;;;;;;;5095901;28;1520;-66
2022/06/27 09:48:42;;;;;;;;;;;;;;;;;;5114202;28;836;-66
2022/06/27 09:51:08;;;;;;;;;;;;;;;;;;5114862;28;883;-66
2022/06/27 09:53:34;;;;;;;;;;;;;;;;;;5114313;28;932;-66
2022/06/27 09:56:00;;;;;;;;;;;;;;;;;;5112499;28;887;-66
2022/06/27 09:58:27;;;;;;;;;;;;;;;;;;5114223;28;832;-66
2022/06/27 10:00:52;;;;;;;;;;;;;;;;;;5112129;28;1958;-66
2022/06/27 10:03:18;;;;;;;;;;;;;;;;;;5113089;28;998;-66
2022/06/27 10:05:47;;;;;;;;;;;;;;;;;;5113494;28;805;-66
2022/06/27 10:08:13;;;;;;;;;;;;;;;;;;5112644;28;1210;-66
2022/06/27 10:10:57;;;;;;;;;;;;;;;;;;5095671;28;1311;-66
2022/06/27 10:13:22;;;;;;;;;;;;;;;;;;5114052;28;921;-66
2022/06/27 10:15:47;;;;;;;;;;;;;;;;;;5113481;28;961;-66
2022/06/27 10:18:13;;;;;;;;;;;;;;;;;;5113235;28;831;-66
2022/06/27 10:20:39;;;;;;;;;;;;;;;;;;5112860;28;1913;-66
2022/06/27 10:23:04;;;;;;;;;;;;;;;;;;5111670;28;840;-66
2022/06/27 10:25:29;;;;;;;;;;;;;;;;;;5113067;28;853;-67
2022/06/27 10:28:07;;;;;;;;;;;;;;;;;;5112505;28;987;-66
2022/06/27 10:30:36;;;;;;;;;;;;;;;;;;5113148;28;1108;-66
2022/06/27 10:33:21;;;;;;;;;;;;;;;;;;5112453;28;1064;-66
2022/06/27 10:35:59;;;;;;;;;;;;;;;;;;5110911;28;1622;-66
2022/06/27 10:38:27;;;;;;;;;;;;;;;;;;5113749;28;1014;-66
2022/06/27 10:40:53;;;;;;;;;;;;;;;;;;5113052;28;1976;-67
2022/06/27 10:43:37;;;;;;;;;;;;;;;;;;5112229;28;1019;-66
2022/06/27 10:46:08;;;;;;;;;;;;;;;;;;5114015;28;947;-66
2022/06/27 10:48:35;;;;;;;;;;;;;;;;;;5119926;27;1155;-66
2022/06/27 10:51:19;;;;;;;;;;;;;;;;;;5132582;27;1191;-66
2022/06/27 10:53:44;;;;;;;;;;;;;;;;;;5129493;27;1068;-66
2022/06/27 10:56:28;;;;;;;;;;;;;;;;;;5111391;28;1167;-67
2022/06/27 10:58:54;;;;;;;;;;;;;;;;;;5127510;27;1076;-66
2022/06/27 11:01:21;;;;;;;;;;;;;;;;;;5133752;27;886;-69
2022/06/27 11:03:47;;;;;;;;;;;;;;;;;;5132906;27;903;-69
2022/06/27 11:06:15;;;;;;;;;;;;;;;;;;5133761;27;1041;-67
2022/06/27 11:08:42;;;;;;;;;;;;;;;;;;5131806;27;923;-66
2022/06/27 11:11:07;;;;;;;;;;;;;;;;;;5131977;27;1495;-65
2022/06/27 11:13:35;;;;;;;;;;;;;;;;;;5133308;27;844;-66
2022/06/27 11:16:01;;;;;;;;;;;;;;;;;;5132530;27;903;-66
2022/06/27 11:18:26;;;;;;;;;;;;;;;;;;5133391;27;887;-65
2022/06/27 11:20:58;;;;;;;;;;;;;;;;;;5132436;27;1964;-66
2022/06/27 11:23:23;;;;;;;;;;;;;;;;;;5131829;27;1061;-66
2022/06/27 11:25:50;;;;;;;;;;;;;;;;;;5132555;27;902;-65
2022/06/27 11:33:46;;;;;;;;;;;;;;;;;;5132465;27;1099;-67
2022/06/27 11:36:12;;;;;;;;;;;;;;;;;;5132751;27;935;-67
2022/06/27 11:38:45;;;;;;;;;;;;;;;;;;5131963;27;1531;-67
2022/06/27 11:41:12;;;;;;;;;;;;;;;;;;5133193;27;1918;-67
2022/06/27 11:43:47;;;;;;;;;;;;;;;;;;5131446;27;1201;-67
2022/06/27 11:46:31;;;;;;;;;;;;;;;;;;5132331;27;832;-67
2022/06/27 11:49:01;;;;;;;;;;;;;;;;;;5132123;27;845;-67
2022/06/27 11:51:28;;;;;;;;;;;;;;;;;;5130794;27;1568;-66
2022/06/27 11:54:01;;;;;;;;;;;;;;;;;;5130797;27;1577;-67
2022/06/27 11:56:27;;;;;;;;;;;;;;;;;;5132916;27;793;-66
2022/06/27 11:58:55;;;;;;;;;;;;;;;;;;5131985;27;994;-66
2022/06/27 12:01:21;;;;;;;;;;;;;;;;;;5132191;27;1897;-67
2022/06/27 12:04:06;;;;;;;;;;;;;;;;;;5131840;27;844;-67
2022/06/27 12:06:31;;;;;;;;;;;;;;;;;;5113570;27;1801;-67
2022/06/27 12:09:03;;;;;;;;;;;;;;;;;;5131666;27;895;-67
2022/06/27 12:11:29;;;;;;;;;;;;;;;;;;5130891;27;1447;-67
2022/06/27 12:14:00;;;;;;;;;;;;;;;;;;5131891;27;902;-66
2022/06/27 12:16:26;;;;;;;;;;;;;;;;;;5132156;27;789;-67
2022/06/27 12:18:51;;;;;;;;;;;;;;;;;;5132490;27;927;-67
2022/06/27 12:21:22;;;;;;;;;;;;;;;;;;5132913;27;1956;-67
2022/06/27 12:23:48;;;;;;;;;;;;;;;;;;5132788;27;847;-67
2022/06/27 12:26:13;;;;;;;;;;;;;;;;;;5132281;27;1143;-67
2022/06/27 12:28:42;;;;;;;;;;;;;;;;;;5115677;27;1170;-67
2022/06/27 12:31:07;;;;;;;;;;;;;;;;;;5109634;28;1206;-67
2022/06/27 12:33:33;;;;;;;;;;;;;;;;;;5111317;28;1084;-66
2022/06/27 12:35:58;;;;;;;;;;;;;;;;;;5109891;28;1229;-66
2022/06/27 12:38:23;;;;;;;;;;;;;;;;;;5111583;28;856;-66
2022/06/27 12:40:49;;;;;;;;;;;;;;;;;;5110824;28;1906;-66
2022/06/27 12:43:14;;;;;;;;;;;;;;;;;;5109077;28;1680;-65
2022/06/27 12:45:40;;;;;;;;;;;;;;;;;;5111191;28;758;-65
2022/06/27 12:48:06;;;;;;;;;;;;;;;;;;5110218;28;891;-65
2022/06/27 12:50:32;;;;;;;;;;;;;;;;;;5111040;28;911;-65
2022/06/27 12:52:57;;;;;;;;;;;;;;;;;;5108949;28;1269;-65
2022/06/27 12:55:22;;;;;;;;;;;;;;;;;;5110528;28;844;-65
2022/06/27 12:57:47;;;;;;;;;;;;;;;;;;5109220;28;931;-65
2022/06/27 13:00:13;;;;;;;;;;;;;;;;;;5109402;28;1905;-65
2022/06/27 13:02:38;;;;;;;;;;;;;;;;;;5111321;28;816;-65
2022/06/27 13:05:04;;;;;;;;;;;;;;;;;;5111947;28;801;-65
2022/06/27 13:07:29;;;;;;;;;;;;;;;;;;5114722;28;789;-65
2022/06/27 13:09:54;;;;;;;;;;;;;;;;;;5114012;28;1249;-66
2022/06/27 13:12:20;;;;;;;;;;;;;;;;;;5113448;28;1237;-65
2022/06/27 13:14:45;;;;;;;;;;;;;;;;;;5113445;28;1280;-64
2022/06/27 13:17:11;;;;;;;;;;;;;;;;;;5113809;28;824;-65
2022/06/27 13:19:36;;;;;;;;;;;;;;;;;;5113431;28;1980;-65
2022/06/27 13:22:02;;;;;;;;;;;;;;;;;;5115139;28;860;-65
2022/06/27 13:24:28;;;;;;;;;;;;;;;;;;5112802;28;880;-65
2022/06/27 13:26:53;;;;;;;;;;;;;;;;;;5114837;28;991;-64
2022/06/27 13:29:18;;;;;;;;;;;;;;;;;;5113288;28;1279;-65
2022/06/27 13:31:43;;;;;;;;;;;;;;;;;;5114745;27;757;-65
2022/06/27 13:34:12;;;;;;;;;;;;;;;;;;5095770;28;1277;-66
2022/06/27 13:36:37;;;;;;;;;;;;;;;;;;5114437;28;994;-65
2022/06/27 13:39:03;;;;;;;;;;;;;;;;;;5113604;28;1980;-66
2022/06/27 13:41:28;;;;;;;;;;;;;;;;;;5095758;28;1263;-65
2022/06/27 13:43:53;;;;;;;;;;;;;;;;;;5113828;28;1014;-66
2022/06/27 13:46:18;;;;;;;;;;;;;;;;;;5113766;28;987;-66
2022/06/27 13:48:44;;;;;;;;;;;;;;;;;;5112498;28;1022;-65
2022/06/27 13:51:09;;;;;;;;;;;;;;;;;;5113516;27;833;-65
2022/06/27 13:53:36;;;;;;;;;;;;;;;;;;5112587;28;828;-66
2022/06/27 13:56:02;;;;;;;;;;;;;;;;;;5113347;27;864;-65
2022/06/27 13:58:27;;;;;;;;;;;;;;;;;;5113859;28;848;-66
2022/06/27 14:00:52;;;;;;;;;;;;;;;;;;5112116;28;1906;-65
2022/06/27 14:03:18;;;;;;;;;;;;;;;;;;5111936;28;899;-66
2022/06/27 14:05:43;;;;;;;;;;;;;;;;;;5113545;28;800;-65
2022/06/27 14:08:09;;;;;;;;;;;;;;;;;;5113998;28;797;-66
2022/06/27 14:10:54;;;;;;;;;;;;;;;;;;5112246;28;1261;-65
2022/06/27 14:13:19;;;;;;;;;;;;;;;;;;5113474;28;879;-66
2022/06/27 14:15:45;;;;;;;;;;;;;;;;;;5095535;28;1137;-66
2022/06/27 14:18:10;;;;;;;;;;;;;;;;;;5113700;28;935;-66
2022/06/27 14:20:36;;;;;;;;;;;;;;;;;;5112517;28;1902;-66
2022/06/27 14:23:01;;;;;;;;;;;;;;;;;;5112809;28;935;-66
2022/06/27 14:25:27;;;;;;;;;;;;;;;;;;5113715;28;899;-66
2022/06/27 14:27:53;;;;;;;;;;;;;;;;;;5112326;28;1010;-66
2022/06/27 14:30:18;;;;;;;;;;;;;;;;;;5113803;28;1002;-66
2022/06/27 14:32:43;;;;;;;;;;;;;;;;;;5113282;28;1155;-67
2022/06/27 14:35:09;;;;;;;;;;;;;;;;;;5114511;28;840;-66
2022/06/27 14:37:35;;;;;;;;;;;;;;;;;;5113675;28;765;-66
2022/06/27 14:40:00;;;;;;;;;;;;;;;;;;5111899;28;1905;-66
2022/06/27 14:42:26;;;;;;;;;;;;;;;;;;5113298;28;1041;-66
2022/06/27 14:44:52;;;;;;;;;;;;;;;;;;5111282;28;1234;-66
2022/06/27 14:47:19;;;;;;;;;;;;;;;;;;5094792;28;1526;-65
2022/06/27 14:49:44;;;;;;;;;;;;;;;;;;5111564;28;824;-65
2022/06/27 14:52:09;;;;;;;;;;;;;;;;;;5111562;28;891;-65
2022/06/27 14:54:35;;;;;;;;;;;;;;;;;;5111422;28;916;-65
2022/06/27 14:57:00;;;;;;;;;;;;;;;;;;5112704;28;837;-65
2022/06/27 14:59:26;;;;;;;;;;;;;;;;;;5111027;28;1903;-66
2022/06/27 15:01:51;;;;;;;;;;;;;;;;;;5112797;28;856;-65
2022/06/27 15:04:16;;;;;;;;;;;;;;;;;;5113052;28;856;-65
2022/06/27 15:06:42;;;;;;;;;;;;;;;;;;5111435;28;840;-66
2022/06/27 15:09:07;;;;;;;;;;;;;;;;;;5112283;28;835;-66
2022/06/27 15:11:44;;;;;;;;;;;;;;;;;;5111053;28;1186;-66
2022/06/27 15:14:12;;;;;;;;;;;;;;;;;;5095893;28;1270;-66
2022/06/27 15:19:05;;;;;;;;;;;;;;;;;;5111646;28;1894;-66
2022/06/27 15:21:30;;;;;;;;;;;;;;;;;;5111589;28;833;-66
2022/06/27 15:23:56;;;;;;;;;;;;;;;;;;5111366;28;947;-65
2022/06/27 15:26:21;;;;;;;;;;;;;;;;;;5110467;28;1190;-65
2022/06/27 15:28:46;;;;;;;;;;;;;;;;;;5111436;28;1093;-66
2022/06/27 15:31:12;;;;;;;;;;;;;;;;;;5110463;28;916;-66
2022/06/27 15:33:37;;;;;;;;;;;;;;;;;;5110572;28;1199;-66
2022/06/27 15:36:06;;;;;;;;;;;;;;;;;;5111116;28;1164;-66
2022/06/27 15:38:31;;;;;;;;;;;;;;;;;;5110541;28;864;-66
2022/06/27 15:40:56;;;;;;;;;;;;;;;;;;5111576;28;1918;-66
2022/06/27 15:43:21;;;;;;;;;;;;;;;;;;5111602;28;895;-66
2022/06/27 15:45:47;;;;;;;;;;;;;;;;;;5093671;28;1206;-66
2022/06/27 15:48:12;;;;;;;;;;;;;;;;;;5109984;28;855;-65
2022/06/27 15:50:37;;;;;;;;;;;;;;;;;;5110137;28;1254;-66
2022/06/27 15:53:02;;;;;;;;;;;;;;;;;;5110036;28;868;-66
2022/06/27 15:55:28;;;;;;;;;;;;;;;;;;5111501;28;1140;-66
2022/06/27 15:57:53;;;;;;;;;;;;;;;;;;5111832;28;821;-66
2022/06/27 16:00:19;;;;;;;;;;;;;;;;;;5111214;28;1953;-66
2022/06/27 16:02:44;;;;;;;;;;;;;;;;;;5111443;28;781;-66
2022/06/27 16:05:12;;;;;;;;;;;;;;;;;;5111834;28;895;-66
2022/06/27 16:07:38;;;;;;;;;;;;;;;;;;5111604;28;978;-67
2022/06/27 16:10:04;;;;;;;;;;;;;;;;;;5111544;28;796;-67
2022/06/27 16:12:29;;;;;;;;;;;;;;;;;;5111528;28;1080;-67
2022/06/27 16:14:55;;;;;;;;;;;;;;;;;;5111745;28;919;-67
2022/06/27 16:17:20;;;;;;;;;;;;;;;;;;5111779;28;879;-67
2022/06/27 16:19:45;;;;;;;;;;;;;;;;;;5109659;28;1902;-67
2022/06/27 16:22:11;;;;;;;;;;;;;;;;;;5110869;28;845;-67
2022/06/27 16:24:36;;;;;;;;;;;;;;;;;;5110265;28;1355;-67
2022/06/27 16:27:01;;;;;;;;;;;;;;;;;;5109995;28;1116;-67
2022/06/27 16:29:26;;;;;;;;;;;;;;;;;;5111368;28;986;-67
2022/06/27 16:31:52;;;;;;;;;;;;;;;;;;5111624;28;1041;-66
2022/06/27 16:34:17;;;;;;;;;;;;;;;;;;5110176;28;1366;-66
2022/06/27 16:36:42;;;;;;;;;;;;;;;;;;5111493;28;903;-66
2022/06/27 16:39:08;;;;;;;;;;;;;;;;;;5110279;28;1785;-66
2022/06/27 16:44:18;;;;;;;;;;;;;;;;;;5111466;28;629;-66
2022/06/27 16:46:43;;;;;;;;;;;;;;;;;;5110814;28;871;-66
2022/06/27 16:49:09;;;;;;;;;;;;;;;;;;5110521;28;761;-65
2022/06/27 16:51:34;;;;;;;;;;;;;;;;;;5091981;28;1190;-66
2022/06/27 16:54:01;;;;;;;;;;;;;;;;;;5110657;28;831;-66
2022/06/27 16:56:27;;;;;;;;;;;;;;;;;;5110874;28;852;-66
2022/06/27 16:58:52;;;;;;;;;;;;;;;;;;5110002;28;856;-66
2022/06/27 17:01:18;;;;;;;;;;;;;;;;;;5109914;28;1901;-66
2022/06/27 17:03:43;;;;;;;;;;;;;;;;;;5109257;28;876;-66
2022/06/27 17:06:08;;;;;;;;;;;;;;;;;;5109288;28;900;-66
2022/06/27 17:08:33;;;;;;;;;;;;;;;;;;5110862;28;860;-65
2022/06/27 17:10:59;;;;;;;;;;;;;;;;;;5109205;28;1498;-66
2022/06/27 17:13:25;;;;;;;;;;;;;;;;;;5109324;28;1166;-66
2022/06/27 17:15:50;;;;;;;;;;;;;;;;;;5110118;28;828;-66
2022/06/27 17:18:16;;;;;;;;;;;;;;;;;;5110625;28;923;-66
2022/06/27 17:20:41;;;;;;;;;;;;;;;;;;5108919;28;1957;-66
2022/06/27 17:23:07;;;;;;;;;;;;;;;;;;5110252;28;894;-66